TimeAKDT,TemperatureF,Dew PointF,Humidity,Sea Level PressureIn,VisibilityMPH,Wind Direction,Wind SpeedMPH,Gust SpeedMPH,PrecipitationIn,Events,Conditions,WindDirDegrees,DateUTC
12:53 AM,-23.1,-27.0,82,30.27,10.0,Calm,Calm,-,N/A,,Clear,0,2013-03-27 08:53:00
1:53 AM,-20.0,-27.0,70,30.28,10.0,NE,4.6,-,N/A,,Clear,40,2013-03-27 09:53:00
2:53 AM,-22.0,-27.9,74,30.29,10.0,NE,4.6,-,N/A,,Clear,40,2013-03-27 10:53:00
3:53 AM,-24.0,-29.9,74,30.29,10.0,NE,5.8,-,N/A,,Clear,40,2013-03-27 11:53:00
4:53 AM,-24.0,-29.9,74,30.30,10.0,Calm,Calm,-,N/A,,Clear,0,2013-03-27 12:53:00
5:53 AM,-27.9,-34.1,73,30.31,10.0,Calm,Calm,-,N/A,,Clear,0,2013-03-27 13:53:00
6:53 AM,-27.9,-33.0,77,30.32,10.0,Calm,Calm,-,N/A,,Partly Cloudy,0,2013-03-27 14:53:00
7:53 AM,-27.9,-33.0,77,30.32,10.0,Calm,Calm,-,N/A,,Partly Cloudy,0,2013-03-27 15:53:00
8:53 AM,-25.1,-29.9,78,30.32,10.0,Calm,Calm,-,N/A,,Partly Cloudy,0,2013-03-27 16:53:00
9:53 AM,-16.1,-20.9,79,30.32,10.0,Calm,Calm,-,N/A,,Partly Cloudy,0,2013-03-27 17:53:00
10:53 AM,-11.0,-15.0,83,30.32,10.0,Calm,Calm,-,N/A,,Partly Cloudy,0,2013-03-27 18:53:00
11:53 AM,-5.1,-14.1,65,30.31,10.0,Calm,Calm,-,N/A,,Scattered Clouds,0,2013-03-27 19:53:00
12:53 PM,1.0,-11.9,55,30.30,10.0,Calm,Calm,-,N/A,,Mostly Cloudy,0,2013-03-27 20:53:00
1:53 PM,3.9,-11.9,48,30.29,10.0,Calm,Calm,-,N/A,,Mostly Cloudy,0,2013-03-27 21:53:00
2:53 PM,6.1,-11.0,45,30.27,10.0,Calm,Calm,-,N/A,,Mostly Cloudy,0,2013-03-27 22:53:00
3:53 PM,8.1,-11.0,42,30.26,10.0,Calm,Calm,-,N/A,,Mostly Cloudy,0,2013-03-27 23:53:00
4:53 PM,10.0,-11.0,38,30.24,10.0,Calm,Calm,-,N/A,,Mostly Cloudy,0,2013-03-28 00:53:00
5:53 PM,10.0,-11.0,38,30.23,10.0,Calm,Calm,-,N/A,,Mostly Cloudy,0,2013-03-28 01:53:00
6:53 PM,8.1,-11.0,42,30.22,10.0,Calm,Calm,-,N/A,,Mostly Cloudy,0,2013-03-28 02:53:00
7:53 PM,1.9,-11.0,55,30.20,10.0,NE,3.5,-,N/A,,Scattered Clouds,40,2013-03-28 03:53:00
8:53 PM,1.9,-11.0,55,30.19,10.0,Calm,Calm,-,N/A,,Scattered Clouds,0,2013-03-28 04:53:00
9:53 PM,-7.1,-15.0,68,30.18,10.0,Calm,Calm,-,N/A,,Scattered Clouds,0,2013-03-28 05:53:00
10:53 PM,-11.0,-17.0,75,30.18,10.0,Calm,Calm,-,N/A,,Partly Cloudy,0,2013-03-28 06:53:00
11:53 PM,-8.0,-14.1,75,30.17,10.0,Calm,Calm,-,N/A,,Partly Cloudy,0,2013-03-28 07:53:00